createdAt,value
2022-09-12T00:01:13.532Z,99.90
2022-09-12T00:03:41.673Z,99.90
2022-09-12T00:06:23.144Z,99.90
2022-09-12T00:08:51.891Z,99.90
2022-09-12T00:11:19.188Z,99.90
2022-09-12T00:13:46.605Z,99.90
2022-09-12T00:16:20.443Z,99.90
2022-09-12T00:18:48.484Z,99.90
2022-09-12T00:21:17.266Z,99.90
2022-09-12T00:23:45.005Z,99.90
2022-09-12T00:26:13.145Z,99.90
2022-09-12T00:28:41.614Z,99.90
2022-09-12T00:31:12.497Z,99.90
2022-09-12T00:33:39.865Z,99.90
2022-09-12T00:36:16.019Z,99.90
2022-09-12T00:38:43.993Z,99.90
2022-09-12T00:41:19.338Z,99.90
2022-09-12T00:43:58.333Z,99.90
2022-09-12T00:46:45.984Z,99.90
2022-09-12T00:49:26.478Z,99.90
2022-09-12T00:52:16.504Z,99.90
2022-09-12T00:54:53.918Z,99.90
2022-09-12T00:57:25.113Z,99.90
2022-09-12T01:00:20.311Z,99.90
2022-09-12T01:02:52.948Z,99.90
2022-09-12T01:05:21.251Z,99.90
2022-09-12T01:07:50.043Z,99.90
2022-09-12T01:10:18.666Z,99.90
2022-09-12T01:12:46.280Z,99.90
2022-09-12T01:15:13.847Z,99.90
2022-09-12T01:17:56.077Z,99.90
2022-09-12T01:20:48.014Z,99.90
2022-09-12T01:23:42.887Z,99.90
2022-09-12T01:26:43.461Z,99.90
2022-09-12T01:29:46.894Z,99.90
2022-09-12T01:32:36.022Z,99.90
2022-09-12T01:35:32.742Z,99.90
2022-09-12T01:38:18.037Z,99.90
2022-09-12T01:41:00.222Z,99.90
2022-09-12T01:43:43.147Z,99.90
2022-09-12T01:46:21.315Z,99.90
2022-09-12T01:49:14.632Z,99.90
2022-09-12T01:51:51.841Z,99.90
2022-09-12T01:54:41.567Z,99.90
2022-09-12T01:57:28.445Z,99.90
2022-09-12T02:00:01.587Z,99.90
2022-09-12T02:02:34.035Z,99.90
2022-09-12T02:05:23.740Z,99.90
2022-09-12T02:08:21.843Z,99.90
2022-09-12T02:11:06.470Z,99.90
2022-09-12T02:13:33.612Z,99.90
2022-09-12T02:16:10.722Z,99.90
2022-09-12T02:18:44.335Z,99.90
2022-09-12T02:21:12.011Z,99.90
2022-09-12T02:23:51.081Z,99.90
2022-09-12T02:26:37.495Z,99.90
2022-09-12T02:29:04.990Z,99.90
2022-09-12T02:31:47.545Z,99.90
2022-09-12T02:34:49.443Z,99.90
2022-09-12T02:37:47.957Z,99.90
2022-09-12T02:40:15.694Z,99.90
2022-09-12T02:42:43.057Z,99.90
2022-09-12T02:45:12.430Z,99.90
2022-09-12T02:48:08.618Z,99.90
2022-09-12T02:50:36.839Z,99.90
2022-09-12T02:53:05.653Z,99.90
2022-09-12T02:55:34.342Z,99.90
2022-09-12T02:58:04.234Z,99.90
2022-09-12T03:00:37.694Z,99.90
2022-09-12T03:03:24.956Z,99.90
2022-09-12T03:06:02.073Z,99.90
2022-09-12T03:08:55.595Z,99.90
2022-09-12T03:11:41.541Z,99.90
2022-09-12T03:14:17.891Z,99.90
2022-09-12T03:16:58.879Z,99.90
2022-09-12T03:19:47.467Z,99.90
2022-09-12T03:22:33.199Z,99.90
2022-09-12T03:25:14.124Z,99.90
2022-09-12T03:27:51.600Z,99.90
2022-09-12T03:30:18.910Z,99.90
2022-09-12T03:32:49.510Z,99.90
2022-09-12T03:35:22.838Z,99.90
2022-09-12T03:37:52.506Z,99.90
2022-09-12T03:40:19.979Z,99.90
2022-09-12T03:42:47.229Z,99.90
2022-09-12T03:45:14.633Z,99.90
2022-09-12T03:47:41.840Z,99.90
2022-09-12T03:50:09.302Z,99.90
2022-09-12T03:52:36.884Z,99.90
2022-09-12T03:55:04.558Z,99.90
2022-09-12T03:57:31.844Z,99.90
2022-09-12T03:59:59.024Z,99.90
2022-09-12T04:02:26.290Z,99.90
2022-09-12T04:04:53.539Z,99.90
2022-09-12T04:07:20.904Z,99.90
2022-09-12T04:09:48.203Z,99.90
2022-09-12T04:12:15.390Z,99.90
2022-09-12T04:14:42.663Z,99.90
2022-09-12T04:17:09.915Z,99.90
2022-09-12T04:19:37.467Z,99.90
2022-09-12T04:22:04.912Z,99.90
2022-09-12T04:24:32.282Z,99.90
2022-09-12T04:26:59.576Z,99.90
2022-09-12T04:29:27.778Z,99.90
2022-09-12T04:31:55.008Z,99.90
2022-09-12T04:34:23.306Z,99.90
2022-09-12T04:36:50.470Z,99.90
2022-09-12T04:39:17.703Z,99.90
2022-09-12T04:41:45.050Z,99.90
2022-09-12T04:44:13.896Z,99.90
2022-09-12T04:46:46.652Z,99.90
2022-09-12T04:49:16.430Z,99.90
2022-09-12T04:51:44.188Z,99.90
2022-09-12T04:54:17.817Z,99.90
2022-09-12T04:56:47.416Z,99.90
2022-09-12T04:59:17.088Z,99.90
2022-09-12T05:01:44.694Z,99.90
2022-09-12T05:04:13.144Z,99.90
2022-09-12T05:06:41.664Z,99.90
2022-09-12T05:09:12.215Z,99.90
2022-09-12T05:12:03.184Z,99.90
2022-09-12T05:14:28.849Z,99.90
2022-09-12T05:16:59.959Z,99.90
2022-09-12T05:19:28.032Z,99.90
2022-09-12T05:21:55.254Z,99.90
2022-09-12T05:24:22.744Z,99.90
2022-09-12T05:26:49.985Z,99.90
2022-09-12T05:29:17.188Z,99.90
2022-09-12T05:31:44.391Z,99.90
2022-09-12T05:34:12.636Z,99.90
2022-09-12T05:36:39.863Z,99.90
2022-09-12T05:39:07.143Z,99.90
2022-09-12T05:41:35.945Z,99.90
2022-09-12T05:44:05.685Z,99.90
2022-09-12T05:46:45.453Z,99.90
2022-09-12T05:49:14.531Z,99.90
2022-09-12T05:51:45.094Z,99.90
2022-09-12T05:54:17.024Z,99.90
2022-09-12T05:56:45.074Z,99.90
2022-09-12T05:59:15.091Z,99.90
2022-09-12T06:01:43.637Z,99.90
2022-09-12T06:04:12.040Z,99.90
2022-09-12T06:06:42.459Z,99.90
2022-09-12T06:09:10.458Z,99.90
2022-09-12T06:11:41.010Z,99.90
2022-09-12T06:14:10.770Z,99.90
2022-09-12T06:16:38.705Z,99.90
2022-09-12T06:19:12.266Z,99.90
2022-09-12T06:21:39.947Z,99.90
2022-09-12T06:24:07.636Z,99.90
2022-09-12T06:26:34.917Z,99.90
2022-09-12T06:29:02.312Z,99.90
2022-09-12T06:31:35.850Z,99.90
2022-09-12T06:34:06.125Z,99.90
2022-09-12T06:36:39.386Z,99.90
2022-09-12T06:39:11.021Z,99.90
2022-09-12T06:41:43.509Z,99.90
2022-09-12T06:44:17.251Z,99.90
2022-09-12T06:46:45.049Z,99.90
2022-09-12T06:49:12.698Z,99.90
2022-09-12T06:51:42.010Z,99.90
2022-09-12T06:54:12.348Z,99.90
2022-09-12T06:56:39.559Z,99.90
2022-09-12T06:59:06.965Z,99.90
2022-09-12T07:01:34.394Z,99.90
2022-09-12T07:04:03.868Z,99.90
2022-09-12T07:06:36.966Z,99.90
2022-09-12T07:09:05.918Z,99.90
2022-09-12T07:11:36.564Z,99.90
2022-09-12T07:14:05.630Z,99.90
2022-09-12T07:16:34.591Z,99.90
2022-09-12T07:19:03.170Z,99.90
2022-09-12T07:21:30.820Z,99.90
2022-09-12T07:23:58.403Z,99.90
2022-09-12T07:26:30.053Z,99.90
2022-09-12T07:29:18.562Z,99.90
2022-09-12T07:31:46.411Z,99.90
2022-09-12T07:34:13.959Z,99.90
2022-09-12T07:36:41.291Z,99.90
2022-09-12T07:39:08.642Z,99.90
2022-09-12T07:41:35.863Z,99.90
2022-09-12T07:44:03.895Z,99.90
2022-09-12T07:46:32.354Z,99.90
2022-09-12T07:49:00.888Z,99.90
2022-09-12T07:51:29.858Z,99.90
2022-09-12T07:53:57.899Z,99.90
2022-09-12T07:56:30.154Z,99.90
2022-09-12T07:58:58.852Z,99.90
2022-09-12T08:01:26.572Z,99.90
2022-09-12T08:03:57.114Z,99.90
2022-09-12T08:06:25.443Z,99.90
2022-09-12T08:08:57.258Z,99.90
2022-09-12T08:11:26.095Z,99.90
2022-09-12T08:13:56.321Z,99.90
2022-09-12T08:16:26.122Z,99.90
2022-09-12T08:18:53.622Z,99.90
2022-09-12T08:21:23.351Z,99.90
2022-09-12T08:24:02.822Z,99.90
2022-09-12T08:26:31.421Z,99.90
2022-09-12T08:28:59.310Z,99.90
2022-09-12T08:31:27.843Z,99.90
2022-09-12T08:33:56.658Z,99.90
2022-09-12T08:36:26.512Z,99.90
2022-09-12T08:39:14.262Z,99.90
2022-09-12T08:41:44.823Z,99.90
2022-09-12T08:44:59.564Z,99.90
2022-09-12T08:47:39.920Z,99.90
2022-09-12T08:50:10.348Z,99.90
2022-09-12T08:52:49.446Z,99.90
2022-09-12T08:55:34.734Z,99.90
2022-09-12T08:58:16.065Z,99.90
2022-09-12T09:00:48.452Z,99.90
2022-09-12T09:03:37.284Z,99.90
2022-09-12T09:06:33.510Z,99.90
2022-09-12T09:09:25.699Z,99.90
2022-09-12T09:12:03.228Z,99.90
2022-09-12T09:14:52.118Z,99.90
2022-09-12T09:17:51.462Z,99.90
2022-09-12T09:20:44.883Z,99.90
2022-09-12T09:23:21.324Z,99.90
2022-09-12T09:26:17.824Z,99.90
2022-09-12T09:29:07.629Z,99.90
2022-09-12T09:31:38.830Z,99.90
2022-09-12T09:34:22.006Z,99.90
2022-09-12T09:36:56.929Z,99.90
2022-09-12T09:39:43.283Z,99.90
2022-09-12T09:42:38.853Z,99.90
2022-09-12T09:45:24.460Z,99.90
2022-09-12T09:47:58.093Z,99.90
2022-09-12T09:50:25.547Z,99.90
2022-09-12T09:52:55.861Z,99.90
2022-09-12T09:55:28.416Z,99.90
2022-09-12T09:57:55.733Z,99.90
2022-09-12T10:00:33.330Z,99.90
2022-09-12T10:03:13.478Z,99.90
2022-09-12T10:05:53.576Z,99.90
2022-09-12T10:08:22.054Z,99.90
2022-09-12T10:11:22.759Z,99.90
2022-09-12T10:14:01.259Z,99.90
2022-09-12T10:16:34.739Z,99.90
2022-09-12T10:19:04.045Z,99.90
2022-09-12T10:21:41.595Z,99.90
2022-09-12T10:24:23.929Z,99.90
2022-09-12T10:26:56.917Z,99.90
2022-09-12T10:29:34.229Z,99.90
2022-09-12T10:32:05.852Z,99.90
2022-09-12T10:34:39.208Z,99.90
2022-09-12T10:37:33.621Z,99.90
2022-09-12T10:40:02.598Z,99.90
2022-09-12T10:42:55.360Z,99.90
2022-09-12T10:45:30.012Z,99.90
2022-09-12T10:48:04.132Z,99.90
2022-09-12T10:50:42.778Z,99.90
2022-09-12T10:53:33.647Z,99.90
2022-09-12T10:56:22.629Z,99.90
2022-09-12T10:59:20.597Z,99.90
2022-09-12T11:02:00.232Z,99.90
2022-09-12T11:04:46.358Z,99.90
2022-09-12T11:07:32.940Z,99.90
2022-09-12T11:10:03.539Z,99.90
2022-09-12T11:12:46.541Z,99.90
2022-09-12T11:15:35.394Z,99.90
2022-09-12T11:18:29.348Z,99.90
2022-09-12T11:21:05.321Z,99.90
2022-09-12T11:23:56.697Z,99.90
2022-09-12T11:26:51.379Z,99.90
2022-09-12T11:29:41.177Z,99.90
2022-09-12T11:32:29.679Z,99.60
2022-09-12T11:35:26.972Z,99.90
2022-09-12T11:38:28.291Z,99.10
2022-09-12T11:41:04.127Z,99.20
2022-09-12T11:44:02.253Z,98.00
2022-09-12T11:46:32.412Z,98.70
2022-09-12T11:49:04.654Z,97.00
2022-09-12T11:51:41.368Z,98.20
2022-09-12T11:54:13.933Z,98.90
2022-09-12T11:56:46.023Z,97.70
2022-09-12T12:00:02.125Z,97.00
2022-09-12T12:02:43.407Z,96.60
2022-09-12T12:05:24.393Z,97.10
2022-09-12T12:07:59.969Z,96.30
2022-09-12T12:10:31.779Z,96.00
2022-09-12T12:13:02.154Z,96.50
2022-09-12T12:15:30.731Z,95.90
2022-09-12T12:18:16.060Z,94.70
2022-09-12T12:20:43.541Z,94.80
2022-09-12T12:23:32.223Z,94.40
2022-09-12T12:26:01.458Z,94.60
2022-09-12T12:28:50.748Z,94.90
2022-09-12T12:31:18.847Z,94.80
2022-09-12T12:33:46.025Z,94.90
2022-09-12T12:36:34.032Z,94.00
2022-09-12T12:39:33.550Z,93.10
2022-09-12T12:42:01.587Z,93.30
2022-09-12T12:44:44.038Z,92.60
2022-09-12T12:47:25.593Z,92.50
2022-09-12T12:49:56.922Z,92.00
2022-09-12T12:52:25.492Z,91.90
2022-09-12T12:54:57.079Z,91.80
2022-09-12T12:57:46.210Z,92.00
2022-09-12T13:00:26.133Z,91.60
2022-09-12T13:03:28.812Z,92.00
2022-09-12T13:06:05.400Z,91.70
2022-09-12T13:08:35.483Z,91.60
2022-09-12T13:11:14.563Z,91.00
2022-09-12T13:13:48.544Z,90.60
2022-09-12T13:16:36.418Z,90.30
2022-09-12T13:19:22.926Z,86.60
2022-09-12T13:21:57.221Z,82.60
2022-09-12T13:24:24.736Z,77.80
2022-09-12T13:26:53.383Z,74.60
2022-09-12T13:29:26.264Z,70.80
2022-09-12T13:32:02.534Z,67.50
2022-09-12T13:34:34.006Z,64.50
2022-09-12T13:37:07.047Z,61.00
2022-09-12T13:39:55.445Z,59.00
2022-09-12T13:42:29.133Z,56.80
2022-09-12T13:45:23.843Z,55.20
2022-09-12T13:48:01.923Z,54.00
2022-09-12T13:50:42.662Z,52.70
2022-09-12T13:53:19.286Z,51.10
2022-09-12T13:55:52.256Z,50.40
2022-09-12T13:58:24.354Z,49.20
2022-09-12T14:01:02.073Z,48.40
2022-09-12T14:03:58.931Z,47.30
2022-09-12T14:06:27.719Z,46.30
2022-09-12T14:09:01.243Z,45.50
2022-09-12T14:11:30.922Z,44.60
2022-09-12T14:13:59.079Z,44.40
2022-09-12T14:16:28.857Z,44.30
2022-09-12T14:18:57.082Z,44.10
2022-09-12T14:21:37.365Z,45.10
2022-09-12T14:24:08.570Z,45.50
2022-09-12T14:26:38.516Z,46.30
2022-09-12T14:29:07.163Z,46.70
2022-09-12T14:31:37.064Z,47.40
2022-09-12T14:34:15.779Z,47.80
2022-09-12T14:36:49.198Z,48.50
2022-09-12T14:39:30.739Z,48.20
2022-09-12T14:42:20.882Z,49.30
2022-09-12T14:45:01.408Z,49.80
2022-09-12T14:47:39.081Z,49.60
2022-09-12T14:50:20.375Z,48.90
2022-09-12T14:53:06.253Z,48.30
2022-09-12T14:55:35.222Z,48.30
2022-09-12T14:58:27.630Z,47.80
2022-09-12T15:00:59.499Z,47.60
2022-09-12T15:03:30.168Z,47.40
2022-09-12T15:05:58.659Z,46.80
2022-09-12T15:08:26.135Z,46.60
2022-09-12T15:10:53.374Z,46.70
2022-09-12T15:13:23.423Z,46.90
2022-09-12T15:15:55.781Z,46.90
2022-09-12T15:18:28.978Z,46.90
2022-09-12T15:21:00.583Z,46.80
2022-09-12T15:23:44.429Z,47.10
2022-09-12T15:26:20.381Z,47.60
2022-09-12T15:28:48.475Z,47.80
2022-09-12T15:31:27.368Z,48.60
2022-09-12T15:33:56.906Z,50.20
2022-09-12T15:36:25.570Z,50.20
2022-09-12T15:38:53.192Z,51.20
2022-09-12T15:41:32.400Z,52.30
2022-09-12T15:43:59.832Z,53.00
2022-09-12T15:46:27.098Z,53.50
2022-09-12T15:48:54.342Z,54.30
2022-09-12T15:51:22.226Z,55.10
2022-09-12T15:53:50.851Z,55.90
2022-09-12T15:56:21.232Z,56.10
2022-09-12T15:58:58.808Z,56.80
2022-09-12T16:01:28.354Z,57.10
2022-09-12T16:03:56.582Z,57.60
2022-09-12T16:06:24.452Z,58.40
2022-09-12T16:08:51.804Z,59.10
2022-09-12T16:11:25.885Z,59.40
2022-09-12T16:13:54.147Z,59.50
2022-09-12T16:16:22.001Z,59.80
2022-09-12T16:18:49.568Z,59.80
2022-09-12T16:21:17.378Z,60.30
2022-09-12T16:23:45.590Z,60.90
2022-09-12T16:26:12.986Z,61.30
2022-09-12T16:28:40.615Z,61.90
2022-09-12T16:31:12.544Z,62.10
2022-09-12T16:33:40.739Z,62.20
2022-09-12T16:36:13.789Z,62.70
2022-09-12T16:38:47.460Z,63.00
2022-09-12T16:41:16.937Z,63.60
2022-09-12T16:43:45.451Z,63.90
2022-09-12T16:46:19.026Z,65.00
2022-09-12T16:48:54.403Z,65.00
2022-09-12T16:51:26.564Z,64.90
2022-09-12T16:53:54.899Z,65.20
2022-09-12T16:56:23.041Z,65.50
2022-09-12T16:58:50.461Z,65.50
2022-09-12T17:01:23.432Z,65.50
2022-09-12T17:03:58.282Z,65.60
2022-09-12T17:06:26.447Z,66.20
2022-09-12T17:08:56.120Z,66.40
2022-09-12T17:11:32.157Z,66.40
2022-09-12T17:14:05.102Z,66.80
2022-09-12T17:16:41.419Z,67.30
2022-09-12T17:19:11.000Z,67.70
2022-09-12T17:21:38.285Z,68.00
2022-09-12T17:24:05.805Z,68.30
2022-09-12T17:26:33.231Z,68.60
2022-09-12T17:29:00.761Z,69.00
2022-09-12T17:31:28.985Z,69.40
2022-09-12T17:33:58.367Z,69.90
2022-09-12T17:36:26.581Z,70.30
2022-09-12T17:38:54.281Z,70.40
2022-09-12T17:41:24.762Z,70.50
2022-09-12T17:43:55.656Z,71.00
2022-09-12T17:46:30.926Z,71.30
2022-09-12T17:49:01.006Z,71.80
2022-09-12T17:51:31.084Z,72.20
2022-09-12T17:54:01.403Z,72.70
2022-09-12T17:56:31.426Z,73.10
2022-09-12T17:58:59.648Z,73.20
2022-09-12T18:01:47.004Z,73.40
2022-09-12T18:04:15.415Z,74.30
2022-09-12T18:06:47.857Z,74.20
2022-09-12T18:09:21.637Z,74.40
2022-09-12T18:11:49.947Z,74.50
2022-09-12T18:14:18.517Z,74.90
2022-09-12T18:16:47.666Z,75.00
2022-09-12T18:19:15.675Z,75.20
2022-09-12T18:21:43.190Z,75.60
2022-09-12T18:24:11.209Z,75.70
2022-09-12T18:26:38.775Z,76.10
2022-09-12T18:29:07.418Z,76.50
2022-09-12T18:31:34.719Z,76.70
2022-09-12T18:34:02.608Z,77.00
2022-09-12T18:36:30.256Z,77.50
2022-09-12T18:38:59.603Z,77.70
2022-09-12T18:41:28.878Z,77.70
2022-09-12T18:43:58.028Z,77.70
2022-09-12T18:46:26.804Z,77.90
2022-09-12T18:48:58.037Z,78.30
2022-09-12T18:51:34.772Z,78.70
2022-09-12T18:54:06.209Z,78.80
2022-09-12T18:56:37.465Z,78.90
2022-09-12T18:59:06.779Z,79.00
2022-09-12T19:01:36.241Z,79.00
2022-09-12T19:04:04.980Z,79.00
2022-09-12T19:06:41.521Z,79.20
2022-09-12T19:09:10.865Z,79.40
2022-09-12T19:11:40.707Z,79.50
2022-09-12T19:14:08.155Z,79.40
2022-09-12T19:16:35.799Z,80.00
2022-09-12T19:19:03.286Z,79.60
2022-09-12T19:21:31.882Z,79.80
2022-09-12T19:24:09.889Z,79.90
2022-09-12T19:26:38.945Z,80.20
2022-09-12T19:29:07.359Z,80.50
2022-09-12T19:31:34.689Z,80.90
2022-09-12T19:34:04.521Z,81.10
2022-09-12T19:36:47.774Z,81.40
2022-09-12T19:39:17.121Z,81.60
2022-09-12T19:41:45.093Z,81.90
2022-09-12T19:44:12.570Z,82.20
2022-09-12T19:46:40.381Z,82.30
2022-09-12T19:49:09.327Z,82.30
2022-09-12T19:51:36.587Z,82.50
2022-09-12T19:54:03.999Z,82.60
2022-09-12T19:56:31.288Z,83.00
2022-09-12T19:58:58.656Z,83.30
2022-09-12T20:01:29.983Z,83.60
2022-09-12T20:03:58.344Z,83.80
2022-09-12T20:06:26.414Z,84.10
2022-09-12T20:08:54.022Z,84.50
2022-09-12T20:11:23.409Z,84.80
2022-09-12T20:13:51.345Z,85.20
2022-09-12T20:16:29.064Z,85.70
2022-09-12T20:19:03.593Z,86.00
2022-09-12T20:21:32.836Z,86.60
2022-09-12T20:24:15.710Z,86.90
2022-09-12T20:26:43.344Z,87.10
2022-09-12T20:29:11.247Z,87.60
2022-09-12T20:31:40.170Z,87.90
2022-09-12T20:34:08.357Z,88.10
2022-09-12T20:36:35.677Z,88.30
2022-09-12T20:39:03.866Z,88.80
2022-09-12T20:41:33.633Z,89.20
2022-09-12T20:44:00.998Z,89.30
2022-09-12T20:46:28.835Z,89.60
2022-09-12T20:48:56.436Z,89.90
2022-09-12T20:51:26.479Z,90.00
2022-09-12T20:54:03.214Z,90.10
2022-09-12T20:56:32.937Z,90.30
2022-09-12T20:59:01.049Z,90.30
2022-09-12T21:01:30.118Z,90.50
2022-09-12T21:03:59.117Z,90.60
2022-09-12T21:06:26.924Z,90.80
2022-09-12T21:08:58.614Z,91.00
2022-09-12T21:11:26.464Z,91.10
2022-09-12T21:13:55.269Z,91.30
2022-09-12T21:16:23.582Z,91.40
2022-09-12T21:18:57.213Z,91.50
2022-09-12T21:21:25.116Z,91.60
2022-09-12T21:23:54.030Z,91.80
2022-09-12T21:26:21.294Z,91.90
2022-09-12T21:28:48.860Z,92.10
2022-09-12T21:31:16.287Z,92.20
2022-09-12T21:33:43.631Z,92.40
2022-09-12T21:36:10.907Z,92.60
2022-09-12T21:38:38.162Z,92.80
2022-09-12T21:41:07.897Z,92.90
2022-09-12T21:43:36.482Z,93.00
2022-09-12T21:46:04.657Z,93.10
2022-09-12T21:48:31.969Z,93.30
2022-09-12T21:50:59.800Z,93.40
2022-09-12T21:53:27.323Z,93.50
2022-09-12T21:55:55.021Z,93.60
2022-09-12T21:58:22.312Z,93.90
2022-09-12T22:00:49.600Z,94.00
2022-09-12T22:03:17.507Z,94.10
2022-09-12T22:05:44.749Z,94.30
2022-09-12T22:08:12.041Z,94.50
2022-09-12T22:10:40.122Z,94.60
2022-09-12T22:13:07.324Z,94.90
2022-09-12T22:15:41.815Z,95.00
2022-09-12T22:18:09.032Z,95.10
2022-09-12T22:20:36.359Z,95.30
2022-09-12T22:23:24.774Z,95.50
2022-09-12T22:25:55.620Z,95.60
2022-09-12T22:28:24.453Z,95.80
2022-09-12T22:30:53.183Z,95.90
2022-09-12T22:33:20.978Z,96.00
2022-09-12T22:35:48.313Z,96.10
2022-09-12T22:38:15.561Z,96.30
2022-09-12T22:40:42.840Z,96.50
2022-09-12T22:43:10.154Z,96.90
2022-09-12T22:45:40.791Z,96.70
2022-09-12T22:48:09.407Z,96.80
2022-09-12T22:50:36.784Z,96.90
2022-09-12T22:53:04.148Z,96.90
2022-09-12T22:55:31.427Z,97.10
2022-09-12T22:57:58.732Z,97.30
2022-09-12T23:00:27.956Z,97.40
2022-09-12T23:02:55.679Z,97.50
2022-09-12T23:05:22.876Z,97.70
2022-09-12T23:07:51.175Z,97.80
2022-09-12T23:10:18.504Z,97.90
2022-09-12T23:12:45.870Z,98.00
2022-09-12T23:15:13.318Z,98.10
2022-09-12T23:17:40.728Z,98.20
2022-09-12T23:20:08.583Z,98.30
2022-09-12T23:22:37.078Z,98.50
2022-09-12T23:25:04.634Z,98.60
2022-09-12T23:27:31.842Z,98.70
2022-09-12T23:29:59.088Z,98.90
2022-09-12T23:32:26.400Z,99.00
2022-09-12T23:34:53.743Z,99.10
2022-09-12T23:37:21.610Z,99.30
2022-09-12T23:39:49.613Z,99.40
2022-09-12T23:42:17.381Z,99.50
2022-09-12T23:44:44.599Z,99.60
2022-09-12T23:47:11.869Z,99.80
2022-09-12T23:49:39.074Z,99.90
2022-09-12T23:52:06.362Z,99.90
2022-09-12T23:54:33.551Z,99.90
2022-09-12T23:57:00.726Z,99.90
2022-09-12T23:59:28.010Z,99.90
